createdAt,value
2022-09-14T00:21:52.853Z,80.69
2022-09-14T00:50:46.037Z,83.07
2022-09-14T01:19:36.162Z,83.83
2022-09-14T01:48:30.701Z,83.8
2022-09-14T02:17:22.360Z,84.87
2022-09-14T02:46:10.249Z,87.24
2022-09-14T03:14:55.559Z,88.56
2022-09-14T03:43:49.588Z,88.33
2022-09-14T04:12:39.699Z,88.92
2022-09-14T04:41:34.585Z,90.54
2022-09-14T05:10:23.917Z,89.95
2022-09-14T05:39:12.355Z,89.62
2022-09-14T06:08:02.645Z,90.41
2022-09-14T06:36:32.937Z,88.55
2022-09-14T07:05:27.841Z,85.08
2022-09-14T07:34:24.639Z,88.38
2022-09-14T08:03:18.332Z,82.67
2022-09-14T08:32:13.800Z,75.43
2022-09-14T09:00:49.649Z,77.46
2022-09-14T09:29:12.635Z,67.81
2022-09-14T09:57:55.990Z,67.16
2022-09-14T10:26:58.016Z,62.75
2022-09-14T10:55:51.425Z,62.04
2022-09-14T11:24:23.145Z,70.74
2022-09-14T11:52:55.240Z,85.02
2022-09-14T12:21:34.198Z,83.55
2022-09-14T12:50:29.209Z,81.73
2022-09-14T13:18:58.889Z,81.8
2022-09-14T13:47:30.921Z,80.14
2022-09-14T14:16:10.551Z,80.07
2022-09-14T14:44:54.893Z,80.71
2022-09-14T15:13:25.995Z,79.77
2022-09-14T15:42:07.000Z,79.28
2022-09-14T16:10:46.729Z,77.56
2022-09-14T16:39:36.252Z,79.78
2022-09-14T17:08:31.416Z,80.21
2022-09-14T17:36:58.687Z,81.35
2022-09-14T18:05:40.307Z,81.35
2022-09-14T18:34:09.046Z,81.68
2022-09-14T19:02:57.498Z,82.01
2022-09-14T19:31:26.659Z,82.21
2022-09-14T19:59:46.482Z,82.4
2022-09-14T20:57:23.934Z,85.97
2022-09-14T21:26:07.598Z,86.7
2022-09-14T21:54:50.611Z,83.97
2022-09-14T22:23:41.972Z,85.87
2022-09-14T22:52:37.639Z,86.42
2022-09-14T23:21:28.706Z,85.78
2022-09-14T23:50:18.143Z,84.91
